Time;durP1;ratioP1;P1;durP2;ratioP2;P2;SDS_P1;SDS_P2;PMS_P1;PMS_P2;Temp;Humidity;BMP_temperature;BMP_pressure;BME280_temperature;BME280_humidity;BME280_pressure;Samples;Min_cycle;Max_cycle;Signal;HPM_P1;HPM_P2
2021/12/24 08:00:22;;;;;;;28.73;18.08;;;;;;;8.09;100.00;100351.66;5214112;28;20406;-66
2021/12/24 08:02:55;;;;;;;36.42;19.90;;;;;;;8.03;100.00;100352.81;5303627;28;20073;-66
2021/12/24 08:05:26;;;;;;;31.95;20.67;;;;;;;8.01;100.00;100347.53;5282482;28;20121;-66
2021/12/24 08:07:58;;;;;;;32.47;19.35;;;;;;;8.07;100.00;100343.63;5196913;28;20477;-66
2021/12/24 08:10:31;;;;;;;33.20;18.33;;;;;;;8.10;100.00;100341.41;5212074;28;20482;-66
2021/12/24 08:13:03;;;;;;;28.75;17.13;;;;;;;8.07;100.00;100346.41;5214013;28;20033;-69
2021/12/24 08:15:34;;;;;;;30.50;17.40;;;;;;;8.05;100.00;100345.03;5213474;28;20385;-69
2021/12/24 08:18:06;;;;;;;34.80;18.33;;;;;;;8.10;100.00;100353.28;5214162;28;20026;-68
2021/12/24 08:20:37;;;;;;;32.13;17.77;;;;;;;8.05;100.00;100353.31;5224548;28;20023;-71
2021/12/24 08:23:08;;;;;;;30.85;17.55;;;;;;;8.05;100.00;100347.78;5213437;28;20103;-73
2021/12/24 08:25:39;;;;;;;27.88;16.60;;;;;;;8.02;100.00;100357.47;5206193;28;20022;-72
2021/12/24 08:28:11;;;;;;;28.23;15.85;;;;;;;8.03;100.00;100364.66;5213589;28;20030;-73
2021/12/24 08:30:42;;;;;;;45.95;19.67;;;;;;;8.09;100.00;100368.22;5209822;28;20030;-78
2021/12/24 08:33:15;;;;;;;30.65;17.13;;;;;;;8.11;100.00;100359.66;5214682;28;20125;-76
2021/12/24 08:35:49;;;;;;;24.20;15.70;;;;;;;8.11;100.00;100351.38;5213942;28;20546;-79
2021/12/24 08:38:21;;;;;;;23.10;15.77;;;;;;;8.19;100.00;100348.81;5213920;28;20037;-72
2021/12/24 08:40:52;;;;;;;30.50;17.80;;;;;;;8.15;100.00;100339.44;5197516;28;20022;-73
2021/12/24 08:43:23;;;;;;;32.15;17.33;;;;;;;8.12;100.00;100345.53;5205695;28;20446;-73
2021/12/24 08:45:55;;;;;;;35.15;17.45;;;;;;;8.14;100.00;100339.75;5213570;28;20025;-70
2021/12/24 08:48:26;;;;;;;32.17;18.85;;;;;;;8.13;100.00;100341.69;5213878;28;20044;-71
2021/12/24 08:50:57;;;;;;;29.95;18.77;;;;;;;8.22;100.00;100342.72;5208429;28;20030;-70
2021/12/24 08:53:29;;;;;;;31.58;20.23;;;;;;;8.17;100.00;100347.47;5229495;28;20026;-71
2021/12/24 08:56:00;;;;;;;38.08;21.88;;;;;;;8.18;100.00;100343.56;5201228;28;20062;-70
2021/12/24 08:58:32;;;;;;;38.30;24.00;;;;;;;8.20;100.00;100341.34;5200226;28;20035;-68
2021/12/24 09:01:05;;;;;;;33.75;20.27;;;;;;;8.21;100.00;100332.78;5194622;28;20426;-70
2021/12/24 09:03:36;;;;;;;36.08;21.02;;;;;;;8.23;100.00;100341.63;5212970;28;20028;-70
2021/12/24 09:06:08;;;;;;;37.60;20.08;;;;;;;8.27;100.00;100339.91;5211535;28;20038;-73
2021/12/24 09:08:42;;;;;;;35.15;21.85;;;;;;;8.28;100.00;100338.84;5212720;28;20379;-67
2021/12/24 09:11:13;;;;;;;34.00;22.23;;;;;;;8.26;100.00;100340.22;5188666;28;20506;-67
2021/12/24 09:13:45;;;;;;;35.28;21.88;;;;;;;8.25;100.00;100333.84;5198865;28;20023;-68
2021/12/24 09:16:16;;;;;;;40.15;23.13;;;;;;;8.32;100.00;100336.31;5184170;28;20027;-67
2021/12/24 09:18:55;;;;;;;36.90;21.75;;;;;;;8.28;100.00;100333.31;5178598;28;20479;-68
2021/12/24 09:21:27;;;;;;;49.50;21.77;;;;;;;8.33;100.00;100339.88;5195482;28;20022;-68
2021/12/24 09:24:00;;;;;;;39.30;22.38;;;;;;;8.39;100.00;100339.59;5184334;28;20512;-70
2021/12/24 09:26:32;;;;;;;34.53;21.65;;;;;;;8.38;100.00;100331.56;5197597;28;20030;-70
2021/12/24 09:29:06;;;;;;;37.13;21.50;;;;;;;8.40;100.00;100341.25;5198981;28;20060;-71
2021/12/24 09:31:37;;;;;;;37.22;22.75;;;;;;;8.39;100.00;100328.56;5195259;28;20046;-71
2021/12/24 09:34:13;;;;;;;36.20;22.27;;;;;;;8.42;100.00;100338.22;5197169;28;20026;-70
2021/12/24 09:36:45;;;;;;;34.28;22.13;;;;;;;8.45;100.00;100343.16;5196029;28;20026;-72
2021/12/24 09:39:16;;;;;;;36.17;22.30;;;;;;;8.42;100.00;100340.97;5196382;28;20035;-71
2021/12/24 09:41:48;;;;;;;40.92;22.35;;;;;;;8.45;100.00;100343.16;5178735;28;20035;-69
2021/12/24 09:44:22;;;;;;;33.05;21.95;;;;;;;8.43;100.00;100337.09;5191786;28;20030;-67
2021/12/24 09:46:54;;;;;;;37.72;22.92;;;;;;;8.40;100.00;100341.25;5198658;28;20026;-69
2021/12/24 09:49:25;;;;;;;36.13;22.45;;;;;;;8.42;100.00;100343.75;5191789;28;20172;-66
2021/12/24 09:51:58;;;;;;;32.53;19.58;;;;;;;8.52;100.00;100338.13;5240953;28;20073;-67
2021/12/24 09:54:36;;;;;;;29.65;22.23;;;;;;;8.49;100.00;100341.47;5244065;28;20463;-70
2021/12/24 09:57:10;;;;;;;40.92;22.25;;;;;;;8.48;100.00;100334.28;5286282;28;20123;-67
2021/12/24 09:59:42;;;;;;;36.95;21.90;;;;;;;8.51;100.00;100335.66;5181817;28;20471;-68
2021/12/24 10:02:19;;;;;;;41.42;24.52;;;;;;;8.49;100.00;100328.47;5198809;28;20035;-71
2021/12/24 10:04:50;;;;;;;38.50;24.17;;;;;;;8.53;100.00;100334.25;5196456;28;20026;-71
2021/12/24 10:07:25;;;;;;;41.90;25.83;;;;;;;8.53;100.00;100333.44;5195519;28;20474;-68
2021/12/24 10:10:07;;;;;;;41.53;25.33;;;;;;;8.56;100.00;100333.66;5305650;28;20476;-70
2021/12/24 10:12:38;;;;;;;47.60;28.42;;;;;;;8.52;100.00;100329.84;5225429;28;20034;-68
2021/12/24 10:15:10;;;;;;;46.22;29.77;;;;;;;8.52;100.00;100334.56;5197639;28;20023;-67
2021/12/24 10:17:43;;;;;;;43.08;26.85;;;;;;;8.51;100.00;100330.94;5198329;28;20034;-67
2021/12/24 10:20:17;;;;;;;42.72;27.02;;;;;;;8.51;100.00;100328.16;5185274;28;20031;-68
2021/12/24 10:22:52;;;;;;;43.50;29.83;;;;;;;8.56;100.00;100333.66;5178471;28;20030;-67
2021/12/24 10:25:27;;;;;;;46.95;28.13;;;;;;;8.52;100.00;100335.38;5178139;28;20065;-67
2021/12/24 10:28:09;;;;;;;44.40;26.30;;;;;;;8.55;100.00;100336.72;5177576;28;20049;-67
2021/12/24 10:30:40;;;;;;;59.53;39.58;;;;;;;8.61;100.00;100330.03;5190404;28;20473;-69
2021/12/24 10:33:13;;;;;;;44.55;27.98;;;;;;;8.60;100.00;100333.94;5197557;28;20034;-69
2021/12/24 10:36:00;;;;;;;46.58;27.35;;;;;;;8.60;100.00;100323.69;5197038;28;20370;-70
2021/12/24 10:38:32;;;;;;;48.50;26.92;;;;;;;8.59;100.00;100321.19;5198297;28;20058;-71
2021/12/24 10:41:06;;;;;;;55.40;39.22;;;;;;;8.67;100.00;100315.88;5185847;28;20115;-69
2021/12/24 10:43:39;;;;;;;48.53;31.13;;;;;;;8.67;100.00;100313.13;5183980;28;20039;-70
2021/12/24 10:46:15;;;;;;;48.40;32.95;;;;;;;8.66;100.00;100317.00;5185003;28;20018;-69
2021/12/24 10:49:24;;;;;;;55.40;33.53;;;;;;;8.68;100.00;100319.47;5200765;28;20026;-73
2021/12/24 10:51:57;;;;;;;54.60;33.70;;;;;;;8.64;100.00;100312.88;5191260;28;20076;-71
2021/12/24 10:54:29;;;;;;;58.00;33.28;;;;;;;8.66;100.00;100308.69;5197970;28;20037;-69
2021/12/24 10:57:17;;;;;;;57.38;34.45;;;;;;;8.71;100.00;100307.84;5192934;28;20026;-68
2021/12/24 10:59:54;;;;;;;53.22;36.53;;;;;;;8.70;100.00;100307.00;5177035;28;20047;-67
2021/12/24 11:02:34;;;;;;;56.63;35.70;;;;;;;8.82;100.00;100303.03;5177369;28;20031;-70
2021/12/24 11:05:22;;;;;;;58.53;39.30;;;;;;;8.76;100.00;100305.03;5188574;28;20432;-71
2021/12/24 11:07:54;;;;;;;60.53;37.97;;;;;;;8.80;100.00;100310.81;5197610;28;20119;-68
2021/12/24 11:10:29;;;;;;;65.30;40.75;;;;;;;8.78;100.00;100307.50;5185275;28;20490;-67
2021/12/24 11:13:08;;;;;;;62.33;37.78;;;;;;;8.72;100.00;100303.97;5191341;28;22089;-67
2021/12/24 11:15:48;;;;;;;64.78;39.13;;;;;;;8.78;100.00;100307.50;5179699;28;20058;-67
2021/12/24 11:18:28;;;;;;;56.22;37.50;;;;;;;8.80;100.00;100303.34;5195468;28;20027;-68
2021/12/24 11:21:05;;;;;;;62.70;42.00;;;;;;;8.79;100.00;100304.44;5193988;28;20026;-67
2021/12/24 11:23:39;;;;;;;61.95;42.35;;;;;;;8.84;100.00;100301.63;5196838;28;20415;-68
2021/12/24 11:26:13;;;;;;;56.63;39.20;;;;;;;8.83;100.00;100301.94;5236104;28;20064;-72
2021/12/24 11:28:45;;;;;;;58.22;37.85;;;;;;;8.86;100.00;100301.34;5195975;28;20054;-72
2021/12/24 11:31:23;;;;;;;66.22;42.78;;;;;;;8.82;100.00;100297.50;5188353;28;20039;-73
2021/12/24 11:33:55;;;;;;;61.05;37.70;;;;;;;8.79;100.00;100303.63;5196910;28;20034;-73
2021/12/24 11:36:28;;;;;;;56.97;36.80;;;;;;;8.79;100.00;100306.38;5197348;28;20442;-73
2021/12/24 11:39:05;;;;;;;58.03;37.35;;;;;;;8.80;100.00;100311.63;5196669;28;20485;-71
2021/12/24 11:41:37;;;;;;;49.08;34.60;;;;;;;8.79;100.00;100309.16;5195448;28;20026;-73
2021/12/24 11:44:09;;;;;;;53.92;38.00;;;;;;;8.82;100.00;100309.41;5179857;28;20048;-73
2021/12/24 11:46:41;;;;;;;51.30;37.13;;;;;;;8.81;100.00;100318.78;5196141;28;20030;-73
2021/12/24 11:49:13;;;;;;;51.00;34.83;;;;;;;8.86;100.00;100315.16;5183473;28;20031;-73
2021/12/24 11:51:44;;;;;;;57.80;36.40;;;;;;;8.79;100.00;100317.44;5185970;28;20036;-73
2021/12/24 11:54:17;;;;;;;59.28;35.90;;;;;;;8.79;100.00;100314.69;5194650;28;20023;-73
2021/12/24 11:56:53;;;;;;;51.13;34.70;;;;;;;8.82;100.00;100311.31;5192430;28;20053;-72
2021/12/24 11:59:37;;;;;;;;;;;;;;;8.88;100.00;100307.41;5184182;28;20590;-72
2021/12/24 12:02:08;;;;;;;53.13;34.92;;;;;;;8.82;100.00;100297.50;5179023;28;19917;-71
2021/12/24 12:04:39;;;;;;;55.90;33.65;;;;;;;8.83;100.00;100301.94;5192973;28;20027;-73
2021/12/24 12:07:15;;;;;;;53.75;34.70;;;;;;;8.84;100.00;100303.56;5176329;28;20061;-71
2021/12/24 12:09:47;;;;;;;52.70;34.53;;;;;;;8.82;100.00;100303.03;5197524;28;20368;-73
2021/12/24 12:12:35;;;;;;;58.58;37.58;;;;;;;8.86;100.00;100301.34;5220748;28;20085;-75
2021/12/24 12:15:34;;;;;;;53.97;34.13;;;;;;;8.89;100.00;100293.28;5179939;28;20039;-73
2021/12/24 12:18:11;;;;;;;49.80;34.42;;;;;;;8.89;100.00;100304.34;5176039;28;20027;-71
2021/12/24 12:20:47;;;;;;;50.10;34.42;;;;;;;8.87;100.00;100292.75;5175897;28;20038;-69
2021/12/24 12:26:38;;;;;;;42.47;30.02;;;;;;;8.84;100.00;100300.81;5198786;28;20046;-73
2021/12/24 12:29:18;;;;;;;48.05;32.38;;;;;;;8.82;100.00;100300.25;5176142;28;20105;-80
2021/12/24 12:32:24;;;;;;;71.45;49.40;;;;;;;8.91;100.00;100298.53;5175628;28;20490;-74
2021/12/24 12:35:00;;;;;;;52.55;31.27;;;;;;;8.87;100.00;100289.16;5175614;28;20057;-71
2021/12/24 12:37:53;;;;;;;45.50;30.98;;;;;;;8.90;100.00;100291.34;5175540;28;20114;-70
2021/12/24 12:40:32;;;;;;;59.00;32.50;;;;;;;8.83;100.00;100283.38;5183544;28;20072;-70
2021/12/24 12:43:08;;;;;;;49.67;32.10;;;;;;;8.82;100.00;100289.19;5186277;28;20374;-69
2021/12/24 12:45:41;;;;;;;41.80;29.67;;;;;;;8.80;100.00;100289.50;5177192;28;20027;-68
2021/12/24 12:48:23;;;;;;;45.95;30.15;;;;;;;8.88;100.00;100290.81;5188035;28;20537;-70
2021/12/24 12:51:00;;;;;;;45.25;31.80;;;;;;;8.87;100.00;100287.22;5180628;28;20034;-70
2021/12/24 12:53:34;;;;;;;45.97;29.88;;;;;;;8.84;100.00;100290.56;5188605;28;20497;-76
2021/12/24 12:56:14;;;;;;;47.35;29.75;;;;;;;8.88;100.00;100288.88;5185674;28;20035;-73
2021/12/24 12:59:02;;;;;;;40.22;27.75;;;;;;;8.90;100.00;100294.13;5222152;28;20068;-73
2021/12/24 13:01:50;;;;;;;43.58;28.05;;;;;;;8.96;100.00;100283.81;5179506;28;20037;-75
2021/12/24 13:04:22;;;;;;;42.53;28.75;;;;;;;8.94;100.00;100284.09;5185844;28;20072;-74
2021/12/24 13:06:56;;;;;;;40.88;29.65;;;;;;;8.99;100.00;100278.53;5203908;28;20026;-74
2021/12/24 13:09:34;;;;;;;80.07;56.10;;;;;;;9.04;100.00;100277.66;5189683;28;20650;-72
2021/12/24 13:12:06;;;;;;;54.10;29.85;;;;;;;9.03;100.00;100282.34;5185277;28;20413;-71
2021/12/24 13:14:40;;;;;;;54.50;38.20;;;;;;;9.03;100.00;100287.91;5181227;28;20027;-74
2021/12/24 13:22:34;;;;;;;48.70;33.58;;;;;;;9.02;100.00;100283.47;5179020;28;20035;-69
2021/12/24 13:25:13;;;;;;;43.47;28.90;;;;;;;9.06;100.00;100281.78;5200099;28;20450;-70
2021/12/24 13:27:51;;;;;;;45.00;30.48;;;;;;;9.07;100.00;100272.34;5179087;28;20039;-78
2021/12/24 13:30:24;;;;;;;43.88;31.33;;;;;;;9.10;100.00;100269.00;5191167;28;20037;-75
2021/12/24 13:33:02;;;;;;;43.90;32.40;;;;;;;9.16;100.00;100263.41;5190562;23;20046;-75
2021/12/24 13:35:47;;;;;;;46.13;30.98;;;;;;;9.12;99.88;100266.75;5178765;28;20072;-80
2021/12/24 13:38:26;;;;;;;46.13;29.52;;;;;;;9.14;99.83;100263.69;5255721;28;20036;-72
2021/12/24 13:40:58;;;;;;;48.00;31.67;;;;;;;9.11;99.57;100264.28;5285028;28;20155;-71
2021/12/24 13:43:31;;;;;;;49.45;31.75;;;;;;;9.11;99.85;100256.81;5197022;28;20483;-73
2021/12/24 13:46:08;;;;;;;44.40;29.92;;;;;;;9.19;100.00;100257.28;5177692;28;20531;-71
2021/12/24 13:49:08;;;;;;;36.72;28.77;;;;;;;9.14;99.61;100259.00;5179072;28;20476;-68
2021/12/24 13:54:33;;;;;;;48.83;33.05;;;;;;;9.26;99.95;100268.84;5178703;28;20031;-69
2021/12/24 13:57:05;;;;;;;40.00;27.15;;;;;;;9.18;99.11;100269.47;5177234;28;20117;-71
2021/12/24 13:59:37;;;;;;;41.83;26.92;;;;;;;9.10;98.48;100266.25;5178070;28;20042;-70
2021/12/24 14:02:09;;;;;;;37.42;23.08;;;;;;;9.08;98.87;100268.47;5178057;28;20075;-68
2021/12/24 14:04:41;;;;;;;37.15;21.95;;;;;;;9.04;98.70;100272.94;5178941;28;20019;-70
2021/12/24 14:07:12;;;;;;;38.10;25.33;;;;;;;9.09;98.65;100275.66;5177515;28;20087;-72
2021/12/24 14:09:43;;;;;;;31.45;20.10;;;;;;;9.10;98.41;100276.47;5177589;28;20030;-80
2021/12/24 14:12:23;;;;;;;42.22;24.00;;;;;;;9.16;98.61;100275.31;5178030;28;20077;-72
2021/12/24 14:15:08;;;;;;;35.85;20.15;;;;;;;9.14;97.50;100272.81;5178520;28;20023;-70
2021/12/24 14:18:05;;;;;;;30.98;20.55;;;;;;;9.10;97.54;100273.69;5179805;28;20041;-67
2021/12/24 14:21:44;;;;;;;31.02;20.42;;;;;;;9.09;97.17;100267.34;5178526;28;20037;-68
2021/12/24 14:23:31;;;;;;;32.08;20.20;;;;;;;9.06;96.90;100265.19;5155279;28;20105;-70
2021/12/24 14:26:04;;;;;;;27.40;17.13;;;;;;;9.01;96.43;100256.94;5228359;28;20041;-70
2021/12/24 14:28:36;;;;;;;34.92;19.98;;;;;;;8.98;96.29;100257.53;5177676;28;20442;-71
2021/12/24 14:31:07;;;;;;;25.45;17.95;;;;;;;8.97;97.24;100266.91;5178229;28;20055;-72
2021/12/24 14:33:46;;;;;;;34.97;22.55;;;;;;;9.02;96.65;100263.28;5177994;28;20026;-70
2021/12/24 14:36:19;;;;;;;30.63;17.23;;;;;;;9.02;96.21;100260.50;5177422;28;20084;-73
2021/12/24 14:38:50;;;;;;;33.47;17.40;;;;;;;9.05;96.42;100243.31;5176609;28;20469;-73
2021/12/24 14:41:23;;;;;;;27.38;16.38;;;;;;;9.05;96.21;100246.94;5175614;28;20114;-76
2021/12/24 14:43:54;;;;;;;30.42;18.83;;;;;;;9.01;96.48;100254.16;5177367;28;20023;-76
2021/12/24 14:46:25;;;;;;;35.55;20.20;;;;;;;9.16;96.58;100260.66;5177106;28;20062;-74
2021/12/24 14:49:05;;;;;;;29.90;17.33;;;;;;;9.08;95.62;100267.66;5176629;28;20033;-73
2021/12/24 14:51:36;;;;;;;28.50;17.00;;;;;;;8.98;96.03;100267.78;5174169;28;20061;-74
2021/12/24 14:54:08;;;;;;;35.28;22.38;;;;;;;9.06;95.96;100267.94;5177124;28;20438;-71
2021/12/24 14:56:40;;;;;;;30.40;18.33;;;;;;;9.13;96.01;100275.91;5178195;28;20098;-73
2021/12/24 14:59:11;;;;;;;30.13;16.42;;;;;;;8.99;95.41;100273.00;5178093;28;20129;-73
2021/12/24 15:01:47;;;;;;;31.77;17.88;;;;;;;9.00;95.84;100277.41;5177562;28;20042;-78
2021/12/24 15:04:18;;;;;;;30.05;17.20;;;;;;;8.99;96.26;100281.28;5176769;28;20113;-74
2021/12/24 15:06:51;;;;;;;30.88;17.35;;;;;;;8.95;95.47;100296.00;5177621;28;20027;-78
2021/12/24 15:09:28;;;;;;;28.67;17.95;;;;;;;8.97;96.06;100291.00;5176266;28;20031;-76
2021/12/24 15:12:15;;;;;;;33.85;18.70;;;;;;;9.01;96.13;100292.06;5177880;28;20026;-75
2021/12/24 15:14:47;;;;;;;30.52;19.75;;;;;;;9.04;95.64;100283.19;5182344;28;20494;-69
2021/12/24 15:17:18;;;;;;;35.95;21.80;;;;;;;8.99;95.77;100288.75;5175240;28;20057;-68
2021/12/24 15:19:49;;;;;;;33.47;19.20;;;;;;;8.99;96.12;100281.28;5176674;28;20038;-69
2021/12/24 15:22:21;;;;;;;32.22;20.70;;;;;;;8.97;95.69;100286.28;5176433;28;20023;-69
2021/12/24 15:24:52;;;;;;;34.28;23.35;;;;;;;8.93;96.52;100290.75;5175753;28;20033;-68
2021/12/24 15:27:31;;;;;;;34.72;23.65;;;;;;;9.05;96.94;100298.66;5213002;28;20073;-68
2021/12/24 15:30:06;;;;;;;42.72;30.13;;;;;;;8.89;96.84;100297.97;5175806;28;20445;-69
2021/12/24 15:32:38;;;;;;;;;;;;;;;9.01;97.05;100301.19;5174694;28;20134;-68
2021/12/24 15:35:09;;;;;;;43.65;28.27;;;;;;;8.98;96.58;100295.44;5173907;28;19933;-67
2021/12/24 15:37:41;;;;;;;41.15;26.83;;;;;;;9.04;97.26;100297.00;5175230;28;20507;-72
2021/12/24 15:40:12;;;;;;;40.38;28.05;;;;;;;9.02;97.15;100307.53;5175637;28;20042;-71
2021/12/24 15:42:44;;;;;;;41.35;28.40;;;;;;;9.02;97.35;100308.34;5176553;28;20058;-70
2021/12/24 15:45:15;;;;;;;42.45;27.98;;;;;;;9.05;97.10;100313.31;5175806;28;20037;-70
2021/12/24 15:47:47;;;;;;;45.78;30.10;;;;;;;8.99;96.58;100306.19;5176042;28;20057;-72
2021/12/24 15:50:18;;;;;;;45.35;28.85;;;;;;;9.14;97.12;100316.25;5176501;28;20023;-67
2021/12/24 15:52:50;;;;;;;49.00;32.38;;;;;;;9.01;96.83;100317.78;5166528;28;20031;-69
2021/12/24 15:55:22;;;;;;;49.25;32.90;;;;;;;9.04;96.70;100322.72;5177112;28;20110;-69
2021/12/24 15:57:54;;;;;;;51.10;33.03;;;;;;;8.92;96.67;100312.06;5175463;28;20084;-69
2021/12/24 16:00:27;;;;;;;56.63;34.40;;;;;;;8.84;96.92;100312.69;5175951;28;20433;-67
2021/12/24 16:02:58;;;;;;;48.58;31.13;;;;;;;8.91;96.56;100312.34;5242809;28;20037;-67
2021/12/24 16:05:29;;;;;;;52.05;35.72;;;;;;;8.83;97.12;100313.81;5176372;28;20404;-67
2021/12/24 16:08:02;;;;;;;52.10;34.53;;;;;;;8.80;97.28;100308.88;5176659;28;20039;-67
2021/12/24 16:10:33;;;;;;;53.25;35.35;;;;;;;8.80;97.11;100302.53;5175823;28;20027;-67
2021/12/24 16:13:04;;;;;;;53.05;35.58;;;;;;;8.76;97.31;100316.09;5175663;28;20544;-68
2021/12/24 16:15:44;;;;;;;74.95;47.70;;;;;;;8.72;97.72;100315.03;5176574;28;20038;-67
2021/12/24 16:18:15;;;;;;;52.63;35.72;;;;;;;8.75;97.83;100313.63;5177228;28;20076;-67
2021/12/24 16:20:48;;;;;;;52.17;35.47;;;;;;;8.75;97.74;100319.97;5179002;28;20027;-67
2021/12/24 16:23:19;;;;;;;61.22;39.63;;;;;;;8.68;97.84;100323.06;5180499;28;20130;-67
2021/12/24 16:25:51;;;;;;;57.40;35.88;;;;;;;8.67;97.54;100320.59;5180283;28;20102;-64
2021/12/24 16:28:22;;;;;;;51.75;35.03;;;;;;;8.69;97.59;100321.13;5178512;28;20035;-65
2021/12/24 16:30:54;;;;;;;52.10;35.22;;;;;;;8.67;97.87;100323.38;5180035;28;20061;-65
2021/12/24 16:33:26;;;;;;;51.15;33.72;;;;;;;8.71;98.09;100324.41;5179682;28;20051;-67
2021/12/24 16:35:57;;;;;;;50.30;34.15;;;;;;;8.65;97.91;100309.81;5186090;28;20547;-66
2021/12/24 16:38:28;;;;;;;50.92;33.38;;;;;;;8.66;98.15;100314.22;5191378;28;20062;-67
2021/12/24 16:41:00;;;;;;;57.80;35.47;;;;;;;8.61;97.91;100303.22;5178372;28;20031;-67
2021/12/24 16:43:31;;;;;;;60.97;35.90;;;;;;;8.61;98.20;100303.22;5180339;28;20051;-67
2021/12/24 16:46:03;;;;;;;54.63;33.40;;;;;;;8.61;98.33;100303.22;5180136;28;20034;-66
2021/12/24 16:48:35;;;;;;;52.40;34.15;;;;;;;8.63;98.11;100317.56;5159515;28;20032;-67
2021/12/24 16:51:06;;;;;;;55.08;36.20;;;;;;;8.58;98.78;100312.09;5159826;28;20046;-67
2021/12/24 16:53:38;;;;;;;58.05;37.05;;;;;;;8.59;98.48;100315.66;5172414;28;20027;-67
2021/12/24 16:56:09;;;;;;;54.47;37.15;;;;;;;8.55;98.99;100309.91;5179061;28;20127;-67
2021/12/24 16:58:40;;;;;;;57.90;37.47;;;;;;;8.60;98.22;100312.63;5180031;28;20065;-67
2021/12/24 17:01:12;;;;;;;56.85;36.53;;;;;;;8.53;98.73;100312.13;5178324;28;20035;-67
2021/12/24 17:03:43;;;;;;;62.88;39.92;;;;;;;8.56;99.11;100310.72;5178466;28;20026;-66
2021/12/24 17:06:17;;;;;;;63.10;36.30;;;;;;;8.51;98.92;100311.59;5237779;28;20044;-67
2021/12/24 17:08:49;;;;;;;65.68;42.90;;;;;;;8.55;99.13;100300.81;5285172;28;20044;-67
2021/12/24 17:11:25;;;;;;;60.00;36.38;;;;;;;8.52;99.00;100299.44;5246215;28;20018;-67
2021/12/24 17:13:56;;;;;;;51.58;35.33;;;;;;;8.55;98.96;100298.84;5179474;28;20037;-67
2021/12/24 17:16:28;;;;;;;57.83;36.25;;;;;;;8.56;99.29;100297.72;5178513;28;20478;-67
2021/12/24 17:18:59;;;;;;;57.00;35.40;;;;;;;8.57;98.67;100295.81;5219001;28;20043;-67
2021/12/24 17:21:30;;;;;;;63.75;40.13;;;;;;;8.57;98.83;100304.09;5179659;28;20031;-67
2021/12/24 17:24:02;;;;;;;58.50;37.42;;;;;;;8.52;98.55;100304.97;5179048;28;20027;-67
2021/12/24 17:26:34;;;;;;;103.45;60.50;;;;;;;8.49;98.92;100308.31;5179870;28;20049;-67
2021/12/24 17:29:06;;;;;;;61.17;39.90;;;;;;;8.52;98.71;100310.50;5180938;28;20027;-67
2021/12/24 17:31:37;;;;;;;59.65;35.97;;;;;;;8.47;98.66;100302.25;5178060;28;20074;-67
